logo
Search for airport 
image banner adimage banner adimage banner ad
image banner ad

YJCO - Jericho (Tas)

Located in Jericho, Australia

ICAO - YJCO, IATA -

Data provided by Airmate  

General information

Coordinates: S42°22'5" E147°20'11"
Elevation is 1402 feet MSL.
Magnetic variation is 15° East
View others Airports in Tasmania

Operational data

Special qualification required
Current time UTC:
Current local time:
Weather at : YMHB - Hobart ( 54 km )
METAR: YMHB 220700Z 28010KT 9999 FEW030 BKN045 14/06 Q1023 RF00.0/000.0
TAF: TAF YMHB 220526Z 2206/2306 31007KT 9999 BKN045 FM221200 32010KT CAVOK FM221800 32010KT 9999 SCT030 FM222300 20013KT 9999 -SHRA SCT015 BKN025 TEMPO 2222/2306 4000 SHRA BKN012
View NOTAMs / SUP AIP / TFR affecting this airport [VIEW]
Communications frequencies: [VIEW]

Runways:

RWY identifierQFULength (ft)Width (ft)SurfaceLDA (ft)
0130°218054GRAS
19210°218054GRAS

Airport contact information

Address: Jericho Australia

Satellite view of YJCO